MET8601 - McGuire AFB to Boston

Boeing 757-200W
773MU - Charter
0 hrs 55 mins
215 nm
Ferry - Daily

Departure

Departing from
McGuire AFB (WRI)
Departure gate
Ramp
Scheduled Departure
GMT 2155
Local 1755
METAR KWRI 280223Z AUTO 08003KT 1 1/4SM R24/2800FT BR CLR 09/09 A2996 RMK AO2 VIS 1 1/4V3 $
TAF TAF KWRI 280200Z 2802/2908 19009KT 4800 BR SCT040 QNH2991INS TEMPO 2802/2808 3200 BR BECMG 2807/2808 14006KT 4800 BR FEW010 BKN050 QNH2990INS BECMG 2808/2809 10006KT 3200 BR SCT005 BKN030 QNH2990INS BECMG 2813/2814 16006KT 9999 NSW SCT010 BKN020 QNH2988INS BECMG 2816/2817 16009KT 8000 -SHRA SCT015 OVC020 QNH2981INS TEMPO 2820/2822 23012G18KT -TSRA OVC020CB TX16/2820Z TN10/2810Z

Arrival

Arriving at
Boston (BOS)
Arrival gate
Scheduled Arrival
GMT 2250
Local 1850

Route Map

Planning Resources

PTPL5 SHLEP HTO ORW7
RBV HFD PUT KBOS
Route:
OFP Layout:
Units:
Detailed Navlog:
ETOPS Planning:
Plan Stepclimbs:
Runway Analysis:
Include NOTAMS:
FIR NOTAMS:
Flight Maps:

Return Flights

MET8600
Boeing 757-200W
1500 GMT

Popularity

Hub Current Bids PiReps this month Total PiReps
KMCI 0 0 1
KLAX 0 0 1
KBOS 0 0 1